sensor_id;sensor_type;location;lat;lon;timestamp;P1;durP1;ratioP1;P2;durP2;ratioP2
63012;SDS011;62113;45.624;11.700;2023-04-03T00:02:05;11.70;;;8.30;;
63012;SDS011;62113;45.624;11.700;2023-04-03T00:04:31;11.70;;;8.80;;
63012;SDS011;62113;45.624;11.700;2023-04-03T00:06:56;12.37;;;7.57;;
63012;SDS011;62113;45.624;11.700;2023-04-03T00:09:22;17.67;;;8.83;;
63012;SDS011;62113;45.624;11.700;2023-04-03T00:11:47;13.03;;;8.10;;
63012;SDS011;62113;45.624;11.700;2023-04-03T00:14:13;9.03;;;7.57;;
63012;SDS011;62113;45.624;11.700;2023-04-03T00:16:39;12.37;;;7.47;;
63012;SDS011;62113;45.624;11.700;2023-04-03T00:19:05;20.88;;;8.05;;
63012;SDS011;62113;45.624;11.700;2023-04-03T00:21:30;11.70;;;8.00;;
63012;SDS011;62113;45.624;11.700;2023-04-03T00:23:56;10.00;;;7.73;;
63012;SDS011;62113;45.624;11.700;2023-04-03T00:26:22;9.63;;;8.13;;
63012;SDS011;62113;45.624;11.700;2023-04-03T00:28:47;11.67;;;7.90;;
63012;SDS011;62113;45.624;11.700;2023-04-03T00:31:16;13.07;;;7.97;;
63012;SDS011;62113;45.624;11.700;2023-04-03T00:33:41;14.07;;;8.35;;
63012;SDS011;62113;45.624;11.700;2023-04-03T00:36:08;12.67;;;7.87;;
63012;SDS011;62113;45.624;11.700;2023-04-03T00:38:35;8.93;;;6.43;;
63012;SDS011;62113;45.624;11.700;2023-04-03T00:41:01;9.52;;;7.30;;
63012;SDS011;62113;45.624;11.700;2023-04-03T00:43:27;12.18;;;7.60;;
63012;SDS011;62113;45.624;11.700;2023-04-03T00:45:57;14.43;;;6.57;;
63012;SDS011;62113;45.624;11.700;2023-04-03T00:48:34;12.07;;;6.88;;
63012;SDS011;62113;45.624;11.700;2023-04-03T00:51:05;12.77;;;7.45;;
63012;SDS011;62113;45.624;11.700;2023-04-03T00:53:39;14.75;;;6.95;;
63012;SDS011;62113;45.624;11.700;2023-04-03T00:56:08;7.90;;;5.82;;
63012;SDS011;62113;45.624;11.700;2023-04-03T00:58:40;7.72;;;5.75;;
63012;SDS011;62113;45.624;11.700;2023-04-03T01:01:10;12.27;;;6.70;;
63012;SDS011;62113;45.624;11.700;2023-04-03T01:03:40;8.90;;;6.40;;
63012;SDS011;62113;45.624;11.700;2023-04-03T01:06:05;7.85;;;5.90;;
63012;SDS011;62113;45.624;11.700;2023-04-03T01:08:31;9.90;;;6.10;;
63012;SDS011;62113;45.624;11.700;2023-04-03T01:10:57;9.47;;;5.63;;
63012;SDS011;62113;45.624;11.700;2023-04-03T01:13:30;11.50;;;7.07;;
63012;SDS011;62113;45.624;11.700;2023-04-03T01:16:00;10.40;;;6.38;;
63012;SDS011;62113;45.624;11.700;2023-04-03T01:18:28;8.85;;;6.22;;
63012;SDS011;62113;45.624;11.700;2023-04-03T01:21:40;9.05;;;6.18;;
63012;SDS011;62113;45.624;11.700;2023-04-03T01:24:03;10.70;;;6.38;;
63012;SDS011;62113;45.624;11.700;2023-04-03T01:26:36;10.50;;;6.20;;
63012;SDS011;62113;45.624;11.700;2023-04-03T01:29:02;8.70;;;6.13;;
63012;SDS011;62113;45.624;11.700;2023-04-03T01:31:30;9.00;;;6.03;;
63012;SDS011;62113;45.624;11.700;2023-04-03T01:33:59;9.35;;;5.60;;
63012;SDS011;62113;45.624;11.700;2023-04-03T01:36:29;10.68;;;6.28;;
63012;SDS011;62113;45.624;11.700;2023-04-03T01:38:56;8.10;;;6.03;;
63012;SDS011;62113;45.624;11.700;2023-04-03T01:41:23;8.23;;;6.38;;
63012;SDS011;62113;45.624;11.700;2023-04-03T01:43:48;10.93;;;6.15;;
63012;SDS011;62113;45.624;11.700;2023-04-03T01:46:15;8.90;;;6.00;;
63012;SDS011;62113;45.624;11.700;2023-04-03T01:48:41;9.52;;;5.78;;
63012;SDS011;62113;45.624;11.700;2023-04-03T01:51:07;8.33;;;5.93;;
63012;SDS011;62113;45.624;11.700;2023-04-03T01:53:32;7.40;;;5.75;;
63012;SDS011;62113;45.624;11.700;2023-04-03T01:55:58;12.07;;;6.40;;
63012;SDS011;62113;45.624;11.700;2023-04-03T01:58:24;9.90;;;6.30;;
63012;SDS011;62113;45.624;11.700;2023-04-03T02:00:50;8.83;;;6.37;;
63012;SDS011;62113;45.624;11.700;2023-04-03T02:03:16;8.00;;;5.50;;
63012;SDS011;62113;45.624;11.700;2023-04-03T02:05:42;8.40;;;5.60;;
63012;SDS011;62113;45.624;11.700;2023-04-03T02:08:07;7.63;;;5.87;;
63012;SDS011;62113;45.624;11.700;2023-04-03T02:10:33;8.03;;;6.77;;
63012;SDS011;62113;45.624;11.700;2023-04-03T02:12:58;20.08;;;6.43;;
63012;SDS011;62113;45.624;11.700;2023-04-03T02:15:24;9.87;;;6.97;;
63012;SDS011;62113;45.624;11.700;2023-04-03T02:17:50;10.53;;;6.27;;
63012;SDS011;62113;45.624;11.700;2023-04-03T02:20:16;9.70;;;6.00;;
63012;SDS011;62113;45.624;11.700;2023-04-03T02:22:41;6.28;;;5.60;;
63012;SDS011;62113;45.624;11.700;2023-04-03T02:25:07;7.32;;;6.03;;
63012;SDS011;62113;45.624;11.700;2023-04-03T02:27:33;12.63;;;6.80;;
63012;SDS011;62113;45.624;11.700;2023-04-03T02:29:58;10.38;;;5.85;;
63012;SDS011;62113;45.624;11.700;2023-04-03T02:32:24;7.55;;;6.03;;
63012;SDS011;62113;45.624;11.700;2023-04-03T02:34:50;6.23;;;5.13;;
63012;SDS011;62113;45.624;11.700;2023-04-03T02:37:15;7.17;;;5.00;;
63012;SDS011;62113;45.624;11.700;2023-04-03T02:39:41;6.97;;;5.27;;
63012;SDS011;62113;45.624;11.700;2023-04-03T02:42:07;5.73;;;5.10;;
63012;SDS011;62113;45.624;11.700;2023-04-03T02:44:32;14.60;;;5.82;;
63012;SDS011;62113;45.624;11.700;2023-04-03T02:46:58;7.50;;;5.40;;
63012;SDS011;62113;45.624;11.700;2023-04-03T02:49:23;7.33;;;5.23;;
63012;SDS011;62113;45.624;11.700;2023-04-03T02:51:49;8.25;;;4.88;;
63012;SDS011;62113;45.624;11.700;2023-04-03T02:54:16;5.53;;;4.07;;
63012;SDS011;62113;45.624;11.700;2023-04-03T02:56:41;10.00;;;4.32;;
63012;SDS011;62113;45.624;11.700;2023-04-03T02:59:07;5.03;;;4.00;;
63012;SDS011;62113;45.624;11.700;2023-04-03T03:01:32;4.70;;;3.30;;
63012;SDS011;62113;45.624;11.700;2023-04-03T03:03:59;5.88;;;3.50;;
63012;SDS011;62113;45.624;11.700;2023-04-03T03:06:25;8.98;;;3.55;;
63012;SDS011;62113;45.624;11.700;2023-04-03T03:08:51;3.55;;;3.03;;
63012;SDS011;62113;45.624;11.700;2023-04-03T03:11:16;4.65;;;3.15;;
63012;SDS011;62113;45.624;11.700;2023-04-03T03:13:42;4.88;;;3.72;;
63012;SDS011;62113;45.624;11.700;2023-04-03T03:16:08;9.82;;;4.18;;
63012;SDS011;62113;45.624;11.700;2023-04-03T03:18:34;8.73;;;3.75;;
63012;SDS011;62113;45.624;11.700;2023-04-03T03:21:01;6.90;;;4.00;;
63012;SDS011;62113;45.624;11.700;2023-04-03T03:23:29;5.90;;;3.35;;
63012;SDS011;62113;45.624;11.700;2023-04-03T03:26:06;4.22;;;3.45;;
63012;SDS011;62113;45.624;11.700;2023-04-03T03:28:34;9.25;;;3.63;;
63012;SDS011;62113;45.624;11.700;2023-04-03T03:31:01;5.53;;;3.35;;
63012;SDS011;62113;45.624;11.700;2023-04-03T03:33:27;6.53;;;3.28;;
63012;SDS011;62113;45.624;11.700;2023-04-03T03:35:53;7.17;;;4.20;;
63012;SDS011;62113;45.624;11.700;2023-04-03T03:38:19;4.93;;;3.25;;
63012;SDS011;62113;45.624;11.700;2023-04-03T03:40:46;5.65;;;3.42;;
63012;SDS011;62113;45.624;11.700;2023-04-03T03:43:13;5.72;;;3.42;;
63012;SDS011;62113;45.624;11.700;2023-04-03T03:45:39;5.37;;;3.47;;
63012;SDS011;62113;45.624;11.700;2023-04-03T03:48:05;10.73;;;4.20;;
63012;SDS011;62113;45.624;11.700;2023-04-03T03:50:31;5.23;;;3.30;;
63012;SDS011;62113;45.624;11.700;2023-04-03T03:52:56;16.50;;;4.22;;
63012;SDS011;62113;45.624;11.700;2023-04-03T03:55:22;21.25;;;4.55;;
63012;SDS011;62113;45.624;11.700;2023-04-03T03:57:47;15.23;;;3.90;;
63012;SDS011;62113;45.624;11.700;2023-04-03T04:00:13;8.38;;;3.42;;
63012;SDS011;62113;45.624;11.700;2023-04-03T04:02:39;5.35;;;3.35;;
63012;SDS011;62113;45.624;11.700;2023-04-03T04:05:05;7.82;;;3.38;;
63012;SDS011;62113;45.624;11.700;2023-04-03T04:07:31;4.13;;;3.03;;
63012;SDS011;62113;45.624;11.700;2023-04-03T04:09:57;17.98;;;3.80;;
63012;SDS011;62113;45.624;11.700;2023-04-03T04:12:22;10.65;;;2.63;;
63012;SDS011;62113;45.624;11.700;2023-04-03T04:14:48;7.20;;;2.92;;
63012;SDS011;62113;45.624;11.700;2023-04-03T04:17:13;5.05;;;3.20;;
63012;SDS011;62113;45.624;11.700;2023-04-03T04:19:39;9.20;;;2.83;;
63012;SDS011;62113;45.624;11.700;2023-04-03T04:22:05;3.25;;;2.60;;
63012;SDS011;62113;45.624;11.700;2023-04-03T04:24:31;3.70;;;2.22;;
63012;SDS011;62113;45.624;11.700;2023-04-03T04:26:56;3.97;;;2.67;;
63012;SDS011;62113;45.624;11.700;2023-04-03T04:29:22;7.27;;;2.80;;
63012;SDS011;62113;45.624;11.700;2023-04-03T04:31:48;5.60;;;2.95;;
63012;SDS011;62113;45.624;11.700;2023-04-03T04:34:13;5.30;;;3.10;;
63012;SDS011;62113;45.624;11.700;2023-04-03T04:36:39;5.23;;;2.83;;
63012;SDS011;62113;45.624;11.700;2023-04-03T04:39:05;7.47;;;2.55;;
63012;SDS011;62113;45.624;11.700;2023-04-03T04:41:31;4.43;;;3.25;;
63012;SDS011;62113;45.624;11.700;2023-04-03T04:43:56;2.78;;;2.55;;
63012;SDS011;62113;45.624;11.700;2023-04-03T04:46:23;9.25;;;3.15;;
63012;SDS011;62113;45.624;11.700;2023-04-03T04:48:49;3.30;;;2.97;;
63012;SDS011;62113;45.624;11.700;2023-04-03T04:51:15;8.32;;;2.65;;
63012;SDS011;62113;45.624;11.700;2023-04-03T04:53:41;6.40;;;3.20;;
63012;SDS011;62113;45.624;11.700;2023-04-03T04:56:07;8.65;;;3.00;;
63012;SDS011;62113;45.624;11.700;2023-04-03T04:58:33;6.00;;;2.97;;
63012;SDS011;62113;45.624;11.700;2023-04-03T05:01:05;3.70;;;3.30;;
63012;SDS011;62113;45.624;11.700;2023-04-03T05:03:32;7.35;;;3.13;;
63012;SDS011;62113;45.624;11.700;2023-04-03T05:05:58;5.47;;;3.70;;
63012;SDS011;62113;45.624;11.700;2023-04-03T05:08:24;7.05;;;3.88;;
63012;SDS011;62113;45.624;11.700;2023-04-03T05:10:50;6.78;;;4.05;;
63012;SDS011;62113;45.624;11.700;2023-04-03T05:13:18;11.40;;;4.63;;
63012;SDS011;62113;45.624;11.700;2023-04-03T05:15:44;8.48;;;4.53;;
63012;SDS011;62113;45.624;11.700;2023-04-03T05:18:10;8.23;;;3.97;;
63012;SDS011;62113;45.624;11.700;2023-04-03T05:20:35;9.40;;;4.25;;
63012;SDS011;62113;45.624;11.700;2023-04-03T05:23:02;12.38;;;3.90;;
63012;SDS011;62113;45.624;11.700;2023-04-03T05:25:28;4.63;;;3.60;;
63012;SDS011;62113;45.624;11.700;2023-04-03T05:27:53;11.43;;;3.60;;
63012;SDS011;62113;45.624;11.700;2023-04-03T05:30:19;5.07;;;3.78;;
63012;SDS011;62113;45.624;11.700;2023-04-03T05:32:44;9.23;;;3.63;;
63012;SDS011;62113;45.624;11.700;2023-04-03T05:35:10;7.25;;;4.63;;
63012;SDS011;62113;45.624;11.700;2023-04-03T05:37:36;7.28;;;3.53;;
63012;SDS011;62113;45.624;11.700;2023-04-03T05:40:03;21.47;;;3.57;;
63012;SDS011;62113;45.624;11.700;2023-04-03T05:42:29;9.07;;;3.08;;
63012;SDS011;62113;45.624;11.700;2023-04-03T05:44:55;5.85;;;2.80;;
63012;SDS011;62113;45.624;11.700;2023-04-03T05:47:20;4.05;;;2.63;;
63012;SDS011;62113;45.624;11.700;2023-04-03T05:49:46;17.27;;;3.13;;
63012;SDS011;62113;45.624;11.700;2023-04-03T05:52:17;2.40;;;2.20;;
63012;SDS011;62113;45.624;11.700;2023-04-03T05:54:47;4.00;;;1.90;;
63012;SDS011;62113;45.624;11.700;2023-04-03T05:57:13;9.57;;;2.00;;
63012;SDS011;62113;45.624;11.700;2023-04-03T05:59:41;9.02;;;1.98;;
63012;SDS011;62113;45.624;11.700;2023-04-03T06:02:09;4.68;;;2.60;;
63012;SDS011;62113;45.624;11.700;2023-04-03T06:04:39;8.20;;;2.42;;
63012;SDS011;62113;45.624;11.700;2023-04-03T06:07:05;6.90;;;4.50;;
63012;SDS011;62113;45.624;11.700;2023-04-03T06:09:32;8.48;;;2.03;;
63012;SDS011;62113;45.624;11.700;2023-04-03T06:11:58;6.30;;;2.30;;
63012;SDS011;62113;45.624;11.700;2023-04-03T06:14:24;4.77;;;2.50;;
63012;SDS011;62113;45.624;11.700;2023-04-03T06:16:50;3.55;;;2.03;;
63012;SDS011;62113;45.624;11.700;2023-04-03T06:19:16;3.88;;;2.03;;
63012;SDS011;62113;45.624;11.700;2023-04-03T06:21:42;4.77;;;2.00;;
63012;SDS011;62113;45.624;11.700;2023-04-03T06:24:09;4.13;;;2.07;;
63012;SDS011;62113;45.624;11.700;2023-04-03T06:26:39;2.38;;;1.80;;
63012;SDS011;62113;45.624;11.700;2023-04-03T06:29:05;2.60;;;1.97;;
63012;SDS011;62113;45.624;11.700;2023-04-03T06:31:30;7.63;;;2.00;;
63012;SDS011;62113;45.624;11.700;2023-04-03T06:33:56;3.37;;;2.00;;
63012;SDS011;62113;45.624;11.700;2023-04-03T06:36:22;9.27;;;1.90;;
63012;SDS011;62113;45.624;11.700;2023-04-03T06:38:47;7.17;;;2.00;;
63012;SDS011;62113;45.624;11.700;2023-04-03T06:41:13;2.65;;;1.77;;
63012;SDS011;62113;45.624;11.700;2023-04-03T06:43:41;3.28;;;2.05;;
63012;SDS011;62113;45.624;11.700;2023-04-03T06:46:10;3.22;;;2.00;;
63012;SDS011;62113;45.624;11.700;2023-04-03T06:48:41;7.20;;;2.30;;
63012;SDS011;62113;45.624;11.700;2023-04-03T06:51:10;10.75;;;2.13;;
63012;SDS011;62113;45.624;11.700;2023-04-03T06:53:42;7.53;;;2.15;;
63012;SDS011;62113;45.624;11.700;2023-04-03T06:56:07;3.97;;;2.27;;
63012;SDS011;62113;45.624;11.700;2023-04-03T06:58:33;3.53;;;2.23;;
63012;SDS011;62113;45.624;11.700;2023-04-03T07:00:59;1.90;;;1.80;;
63012;SDS011;62113;45.624;11.700;2023-04-03T07:03:25;5.30;;;2.63;;
63012;SDS011;62113;45.624;11.700;2023-04-03T07:05:50;3.47;;;2.00;;
63012;SDS011;62113;45.624;11.700;2023-04-03T07:08:16;9.67;;;2.37;;
63012;SDS011;62113;45.624;11.700;2023-04-03T07:10:41;10.77;;;2.27;;
63012;SDS011;62113;45.624;11.700;2023-04-03T07:13:07;2.33;;;2.10;;
63012;SDS011;62113;45.624;11.700;2023-04-03T07:15:32;9.97;;;2.70;;
63012;SDS011;62113;45.624;11.700;2023-04-03T07:17:58;3.53;;;2.03;;
63012;SDS011;62113;45.624;11.700;2023-04-03T07:20:24;10.57;;;2.47;;
63012;SDS011;62113;45.624;11.700;2023-04-03T07:22:50;4.33;;;2.23;;
63012;SDS011;62113;45.624;11.700;2023-04-03T07:25:15;5.10;;;2.57;;
63012;SDS011;62113;45.624;11.700;2023-04-03T07:27:42;9.55;;;2.55;;
63012;SDS011;62113;45.624;11.700;2023-04-03T07:30:08;22.80;;;2.97;;
63012;SDS011;62113;45.624;11.700;2023-04-03T07:32:34;13.52;;;2.88;;
63012;SDS011;62113;45.624;11.700;2023-04-03T07:35:00;5.22;;;2.65;;
63012;SDS011;62113;45.624;11.700;2023-04-03T07:37:26;9.20;;;2.57;;
63012;SDS011;62113;45.624;11.700;2023-04-03T07:39:51;4.27;;;2.10;;
63012;SDS011;62113;45.624;11.700;2023-04-03T07:42:17;8.47;;;2.37;;
63012;SDS011;62113;45.624;11.700;2023-04-03T07:44:43;14.13;;;3.10;;
63012;SDS011;62113;45.624;11.700;2023-04-03T07:47:08;4.90;;;2.50;;
63012;SDS011;62113;45.624;11.700;2023-04-03T07:49:35;9.63;;;2.90;;
63012;SDS011;62113;45.624;11.700;2023-04-03T07:52:03;11.63;;;2.70;;
63012;SDS011;62113;45.624;11.700;2023-04-03T07:54:29;7.20;;;2.40;;
63012;SDS011;62113;45.624;11.700;2023-04-03T07:56:55;11.82;;;3.63;;
63012;SDS011;62113;45.624;11.700;2023-04-03T07:59:21;11.40;;;2.60;;
63012;SDS011;62113;45.624;11.700;2023-04-03T08:01:47;4.30;;;1.87;;
63012;SDS011;62113;45.624;11.700;2023-04-03T08:04:12;5.37;;;2.20;;
63012;SDS011;62113;45.624;11.700;2023-04-03T08:06:38;4.03;;;2.27;;
63012;SDS011;62113;45.624;11.700;2023-04-03T08:09:04;4.00;;;2.40;;
63012;SDS011;62113;45.624;11.700;2023-04-03T08:11:29;5.83;;;2.60;;
63012;SDS011;62113;45.624;11.700;2023-04-03T08:13:56;10.43;;;2.00;;
63012;SDS011;62113;45.624;11.700;2023-04-03T08:16:22;2.60;;;1.95;;
63012;SDS011;62113;45.624;11.700;2023-04-03T08:18:51;3.72;;;2.00;;
63012;SDS011;62113;45.624;11.700;2023-04-03T08:21:17;12.57;;;2.10;;
63012;SDS011;62113;45.624;11.700;2023-04-03T08:23:43;6.87;;;2.10;;
63012;SDS011;62113;45.624;11.700;2023-04-03T08:26:09;6.10;;;2.13;;
63012;SDS011;62113;45.624;11.700;2023-04-03T08:28:37;6.03;;;2.15;;
63012;SDS011;62113;45.624;11.700;2023-04-03T08:31:07;6.00;;;2.00;;
63012;SDS011;62113;45.624;11.700;2023-04-03T08:33:36;6.15;;;2.00;;
63012;SDS011;62113;45.624;11.700;2023-04-03T08:36:05;4.95;;;2.25;;
63012;SDS011;62113;45.624;11.700;2023-04-03T08:38:33;8.88;;;2.53;;
63012;SDS011;62113;45.624;11.700;2023-04-03T08:41:13;6.22;;;2.72;;
63012;SDS011;62113;45.624;11.700;2023-04-03T08:46:35;2.50;;;1.83;;
63012;SDS011;62113;45.624;11.700;2023-04-03T08:49:11;6.03;;;2.30;;
63012;SDS011;62113;45.624;11.700;2023-04-03T08:51:51;3.60;;;1.88;;
63012;SDS011;62113;45.624;11.700;2023-04-03T08:54:21;3.70;;;2.03;;
63012;SDS011;62113;45.624;11.700;2023-04-03T08:57:09;6.03;;;2.00;;
63012;SDS011;62113;45.624;11.700;2023-04-03T08:59:36;5.90;;;2.10;;
63012;SDS011;62113;45.624;11.700;2023-04-03T09:02:12;9.45;;;2.03;;
63012;SDS011;62113;45.624;11.700;2023-04-03T09:04:54;3.88;;;1.83;;
63012;SDS011;62113;45.624;11.700;2023-04-03T09:07:26;9.65;;;2.40;;
63012;SDS011;62113;45.624;11.700;2023-04-03T09:10:01;7.22;;;2.00;;
63012;SDS011;62113;45.624;11.700;2023-04-03T09:22:49;6.50;;;2.22;;
63012;SDS011;62113;45.624;11.700;2023-04-03T09:27:46;3.33;;;1.80;;
63012;SDS011;62113;45.624;11.700;2023-04-03T09:30:13;3.92;;;1.85;;
63012;SDS011;62113;45.624;11.700;2023-04-03T09:32:41;4.57;;;1.90;;
63012;SDS011;62113;45.624;11.700;2023-04-03T09:35:24;5.03;;;2.15;;
63012;SDS011;62113;45.624;11.700;2023-04-03T09:37:53;6.68;;;2.03;;
63012;SDS011;62113;45.624;11.700;2023-04-03T09:43:37;6.17;;;2.23;;
63012;SDS011;62113;45.624;11.700;2023-04-03T09:45:43;8.07;;;1.85;;
63012;SDS011;62113;45.624;11.700;2023-04-03T09:53:36;7.88;;;2.22;;
63012;SDS011;62113;45.624;11.700;2023-04-03T09:58:40;1.98;;;1.77;;
63012;SDS011;62113;45.624;11.700;2023-04-03T10:04:12;4.35;;;1.95;;
63012;SDS011;62113;45.624;11.700;2023-04-03T10:06:44;9.90;;;2.13;;
63012;SDS011;62113;45.624;11.700;2023-04-03T10:12:04;6.82;;;1.90;;
63012;SDS011;62113;45.624;11.700;2023-04-03T10:14:32;8.05;;;1.95;;
63012;SDS011;62113;45.624;11.700;2023-04-03T10:17:02;7.13;;;2.30;;
63012;SDS011;62113;45.624;11.700;2023-04-03T10:36:54;3.15;;;1.90;;
63012;SDS011;62113;45.624;11.700;2023-04-03T10:39:31;3.95;;;2.10;;
63012;SDS011;62113;45.624;11.700;2023-04-03T10:52:37;3.88;;;1.77;;
63012;SDS011;62113;45.624;11.700;2023-04-03T10:57:55;4.82;;;2.25;;
63012;SDS011;62113;45.624;11.700;2023-04-03T11:00:30;9.23;;;2.67;;
63012;SDS011;62113;45.624;11.700;2023-04-03T11:03:11;3.13;;;1.85;;
63012;SDS011;62113;45.624;11.700;2023-04-03T11:05:51;5.38;;;2.63;;
63012;SDS011;62113;45.624;11.700;2023-04-03T11:08:38;11.15;;;2.13;;
63012;SDS011;62113;45.624;11.700;2023-04-03T11:11:15;3.78;;;2.67;;
63012;SDS011;62113;45.624;11.700;2023-04-03T11:19:17;3.20;;;1.98;;
63012;SDS011;62113;45.624;11.700;2023-04-03T11:21:56;3.80;;;2.10;;
63012;SDS011;62113;45.624;11.700;2023-04-03T11:24:27;3.63;;;2.30;;
63012;SDS011;62113;45.624;11.700;2023-04-03T11:26:57;5.07;;;2.33;;
63012;SDS011;62113;45.624;11.700;2023-04-03T11:29:32;7.00;;;2.53;;
63012;SDS011;62113;45.624;11.700;2023-04-03T11:32:07;5.18;;;2.42;;
63012;SDS011;62113;45.624;11.700;2023-04-03T11:34:45;5.80;;;2.95;;
63012;SDS011;62113;45.624;11.700;2023-04-03T11:40:08;5.70;;;2.53;;
63012;SDS011;62113;45.624;11.700;2023-04-03T11:42:52;4.70;;;2.58;;
63012;SDS011;62113;45.624;11.700;2023-04-03T11:45:31;10.93;;;2.42;;
63012;SDS011;62113;45.624;11.700;2023-04-03T11:48:02;5.53;;;2.00;;
63012;SDS011;62113;45.624;11.700;2023-04-03T12:32:06;9.25;;;2.65;;
63012;SDS011;62113;45.624;11.700;2023-04-03T12:51:13;2.75;;;2.33;;
63012;SDS011;62113;45.624;11.700;2023-04-03T12:53:41;7.03;;;2.08;;
63012;SDS011;62113;45.624;11.700;2023-04-03T12:59:23;10.40;;;2.70;;
63012;SDS011;62113;45.624;11.700;2023-04-03T13:04:21;6.00;;;2.03;;
63012;SDS011;62113;45.624;11.700;2023-04-03T13:06:47;3.78;;;1.95;;
63012;SDS011;62113;45.624;11.700;2023-04-03T13:09:23;5.83;;;2.10;;
63012;SDS011;62113;45.624;11.700;2023-04-03T13:11:58;2.95;;;2.10;;
63012;SDS011;62113;45.624;11.700;2023-04-03T13:14:29;3.92;;;2.30;;
63012;SDS011;62113;45.624;11.700;2023-04-03T13:16:56;3.25;;;2.63;;
63012;SDS011;62113;45.624;11.700;2023-04-03T13:19:35;4.93;;;2.65;;
63012;SDS011;62113;45.624;11.700;2023-04-03T13:22:02;11.13;;;3.73;;
63012;SDS011;62113;45.624;11.700;2023-04-03T13:24:33;4.13;;;2.00;;
63012;SDS011;62113;45.624;11.700;2023-04-03T13:27:01;9.35;;;2.17;;
63012;SDS011;62113;45.624;11.700;2023-04-03T13:29:35;3.38;;;2.10;;
63012;SDS011;62113;45.624;11.700;2023-04-03T13:32:02;6.18;;;2.17;;
63012;SDS011;62113;45.624;11.700;2023-04-03T13:34:43;3.58;;;2.28;;
63012;SDS011;62113;45.624;11.700;2023-04-03T13:37:22;11.98;;;3.03;;
63012;SDS011;62113;45.624;11.700;2023-04-03T13:40:00;4.18;;;2.30;;
63012;SDS011;62113;45.624;11.700;2023-04-03T13:42:33;2.92;;;1.90;;
63012;SDS011;62113;45.624;11.700;2023-04-03T13:47:45;3.13;;;2.05;;
63012;SDS011;62113;45.624;11.700;2023-04-03T13:52:41;3.42;;;2.22;;
63012;SDS011;62113;45.624;11.700;2023-04-03T13:57:53;6.10;;;2.20;;
63012;SDS011;62113;45.624;11.700;2023-04-03T14:00:30;2.95;;;2.28;;
63012;SDS011;62113;45.624;11.700;2023-04-03T14:02:56;2.85;;;2.20;;
63012;SDS011;62113;45.624;11.700;2023-04-03T14:05:23;2.30;;;2.10;;
63012;SDS011;62113;45.624;11.700;2023-04-03T14:07:50;2.80;;;2.22;;
63012;SDS011;62113;45.624;11.700;2023-04-03T14:10:16;4.72;;;2.20;;
63012;SDS011;62113;45.624;11.700;2023-04-03T14:12:43;2.83;;;2.42;;
63012;SDS011;62113;45.624;11.700;2023-04-03T14:15:16;4.20;;;2.28;;
63012;SDS011;62113;45.624;11.700;2023-04-03T14:17:48;3.03;;;2.00;;
63012;SDS011;62113;45.624;11.700;2023-04-03T14:20:16;5.03;;;2.70;;
63012;SDS011;62113;45.624;11.700;2023-04-03T14:22:44;6.65;;;2.13;;
63012;SDS011;62113;45.624;11.700;2023-04-03T14:25:10;14.00;;;2.03;;
63012;SDS011;62113;45.624;11.700;2023-04-03T14:27:37;7.23;;;2.00;;
63012;SDS011;62113;45.624;11.700;2023-04-03T14:30:08;5.22;;;2.10;;
63012;SDS011;62113;45.624;11.700;2023-04-03T14:32:40;4.25;;;1.83;;
63012;SDS011;62113;45.624;11.700;2023-04-03T14:35:06;3.13;;;1.87;;
63012;SDS011;62113;45.624;11.700;2023-04-03T14:37:32;6.57;;;2.13;;
63012;SDS011;62113;45.624;11.700;2023-04-03T14:39:59;5.63;;;2.13;;
63012;SDS011;62113;45.624;11.700;2023-04-03T14:42:31;4.43;;;2.40;;
63012;SDS011;62113;45.624;11.700;2023-04-03T14:44:59;2.47;;;2.10;;
63012;SDS011;62113;45.624;11.700;2023-04-03T14:47:31;4.95;;;2.17;;
63012;SDS011;62113;45.624;11.700;2023-04-03T14:49:58;6.43;;;1.92;;
63012;SDS011;62113;45.624;11.700;2023-04-03T14:52:26;16.13;;;3.17;;
63012;SDS011;62113;45.624;11.700;2023-04-03T14:54:54;17.58;;;3.85;;
63012;SDS011;62113;45.624;11.700;2023-04-03T14:57:20;4.53;;;1.52;;
63012;SDS011;62113;45.624;11.700;2023-04-03T14:59:48;6.00;;;1.75;;
63012;SDS011;62113;45.624;11.700;2023-04-03T15:05:03;6.95;;;1.70;;
63012;SDS011;62113;45.624;11.700;2023-04-03T15:07:35;7.47;;;1.73;;
63012;SDS011;62113;45.624;11.700;2023-04-03T15:10:30;2.05;;;1.40;;
63012;SDS011;62113;45.624;11.700;2023-04-03T15:12:56;5.22;;;1.58;;
63012;SDS011;62113;45.624;11.700;2023-04-03T15:15:22;5.97;;;1.70;;
63012;SDS011;62113;45.624;11.700;2023-04-03T15:17:53;9.95;;;1.55;;
63012;SDS011;62113;45.624;11.700;2023-04-03T15:20:23;7.80;;;1.95;;
63012;SDS011;62113;45.624;11.700;2023-04-03T15:22:51;5.70;;;1.70;;
63012;SDS011;62113;45.624;11.700;2023-04-03T15:25:17;11.90;;;1.65;;
63012;SDS011;62113;45.624;11.700;2023-04-03T15:27:43;6.50;;;3.03;;
63012;SDS011;62113;45.624;11.700;2023-04-03T15:30:14;4.90;;;2.08;;
63012;SDS011;62113;45.624;11.700;2023-04-03T15:32:41;8.10;;;2.40;;
63012;SDS011;62113;45.624;11.700;2023-04-03T15:35:06;6.27;;;2.00;;
63012;SDS011;62113;45.624;11.700;2023-04-03T15:37:32;5.93;;;1.70;;
63012;SDS011;62113;45.624;11.700;2023-04-03T15:39:58;1.87;;;1.50;;
63012;SDS011;62113;45.624;11.700;2023-04-03T15:42:24;4.37;;;1.87;;
63012;SDS011;62113;45.624;11.700;2023-04-03T15:44:50;4.53;;;1.80;;
63012;SDS011;62113;45.624;11.700;2023-04-03T15:47:15;5.70;;;1.60;;
63012;SDS011;62113;45.624;11.700;2023-04-03T15:49:41;5.70;;;1.90;;
63012;SDS011;62113;45.624;11.700;2023-04-03T15:52:07;2.10;;;1.40;;
63012;SDS011;62113;45.624;11.700;2023-04-03T15:54:33;2.07;;;1.30;;
63012;SDS011;62113;45.624;11.700;2023-04-03T15:56:58;4.00;;;1.50;;
63012;SDS011;62113;45.624;11.700;2023-04-03T15:59:24;2.93;;;1.40;;
63012;SDS011;62113;45.624;11.700;2023-04-03T16:01:50;7.43;;;1.80;;
63012;SDS011;62113;45.624;11.700;2023-04-03T16:04:16;11.82;;;1.52;;
63012;SDS011;62113;45.624;11.700;2023-04-03T16:06:42;13.00;;;2.15;;
63012;SDS011;62113;45.624;11.700;2023-04-03T16:09:08;22.10;;;2.07;;
63012;SDS011;62113;45.624;11.700;2023-04-03T16:11:35;4.15;;;1.52;;
63012;SDS011;62113;45.624;11.700;2023-04-03T16:14:02;13.73;;;1.73;;
63012;SDS011;62113;45.624;11.700;2023-04-03T16:16:27;7.70;;;1.67;;
63012;SDS011;62113;45.624;11.700;2023-04-03T16:18:54;5.60;;;1.70;;
63012;SDS011;62113;45.624;11.700;2023-04-03T16:21:20;7.97;;;1.73;;
63012;SDS011;62113;45.624;11.700;2023-04-03T16:23:46;5.35;;;1.70;;
63012;SDS011;62113;45.624;11.700;2023-04-03T16:26:12;6.27;;;2.10;;
63012;SDS011;62113;45.624;11.700;2023-04-03T16:28:38;8.98;;;1.60;;
63012;SDS011;62113;45.624;11.700;2023-04-03T16:31:05;2.37;;;1.57;;
63012;SDS011;62113;45.624;11.700;2023-04-03T16:33:32;4.28;;;1.60;;
63012;SDS011;62113;45.624;11.700;2023-04-03T16:35:58;2.08;;;1.67;;
63012;SDS011;62113;45.624;11.700;2023-04-03T16:38:24;2.67;;;1.50;;
63012;SDS011;62113;45.624;11.700;2023-04-03T16:40:50;5.77;;;1.33;;
63012;SDS011;62113;45.624;11.700;2023-04-03T16:43:17;12.00;;;1.60;;
63012;SDS011;62113;45.624;11.700;2023-04-03T16:45:43;2.80;;;1.40;;
63012;SDS011;62113;45.624;11.700;2023-04-03T16:48:08;8.77;;;1.80;;
63012;SDS011;62113;45.624;11.700;2023-04-03T16:50:34;2.27;;;1.67;;
63012;SDS011;62113;45.624;11.700;2023-04-03T16:53:00;5.72;;;1.40;;
63012;SDS011;62113;45.624;11.700;2023-04-03T16:55:27;8.80;;;1.67;;
63012;SDS011;62113;45.624;11.700;2023-04-03T16:57:53;7.47;;;1.90;;
63012;SDS011;62113;45.624;11.700;2023-04-03T17:00:20;14.27;;;2.17;;
63012;SDS011;62113;45.624;11.700;2023-04-03T17:02:46;3.87;;;1.90;;